createdAt,value
2019-03-29T00:02:10.757Z,49.30
2019-03-29T00:04:40.582Z,51.70
2019-03-29T00:07:10.460Z,44.17
2019-03-29T00:09:40.330Z,52.23
2019-03-29T00:12:10.145Z,50.23
2019-03-29T00:14:39.989Z,46.20
2019-03-29T00:17:09.842Z,51.80
2019-03-29T00:19:39.655Z,47.03
2019-03-29T00:22:09.460Z,51.10
2019-03-29T00:24:39.313Z,59.93
2019-03-29T00:27:09.110Z,50.00
2019-03-29T00:29:38.929Z,51.97
2019-03-29T00:32:08.761Z,51.00
2019-03-29T00:34:38.559Z,59.60
2019-03-29T00:37:08.431Z,55.77
2019-03-29T00:39:38.258Z,52.00
2019-03-29T00:42:08.050Z,53.70
2019-03-29T00:44:37.957Z,54.97
2019-03-29T00:47:07.779Z,49.57
2019-03-29T00:49:37.589Z,61.20
2019-03-29T00:52:07.433Z,59.17
2019-03-29T00:54:37.230Z,47.53
2019-03-29T00:57:07.028Z,49.40
2019-03-29T00:59:36.856Z,51.00
2019-03-29T01:02:06.658Z,51.23
2019-03-29T01:04:36.452Z,51.73
2019-03-29T01:07:06.295Z,51.57
2019-03-29T01:09:36.122Z,61.70
2019-03-29T01:12:06.274Z,54.80
2019-03-29T01:14:36.842Z,62.57
2019-03-29T01:17:06.646Z,60.17
2019-03-29T01:19:36.440Z,48.37
2019-03-29T01:22:06.264Z,52.30
2019-03-29T01:24:36.093Z,51.00
2019-03-29T01:27:05.977Z,58.80
2019-03-29T01:29:35.821Z,52.10
2019-03-29T01:32:06.420Z,49.40
2019-03-29T01:34:36.972Z,48.30
2019-03-29T01:37:06.812Z,38.97
2019-03-29T01:39:36.618Z,42.67
2019-03-29T01:42:06.497Z,50.33
2019-03-29T01:44:36.333Z,52.30
2019-03-29T01:47:06.136Z,53.57
2019-03-29T01:49:35.932Z,51.67
2019-03-29T01:52:05.775Z,48.10
2019-03-29T01:54:35.573Z,53.20
2019-03-29T01:57:05.372Z,53.33
2019-03-29T01:59:35.311Z,47.30
2019-03-29T02:02:05.101Z,53.23
2019-03-29T02:04:35.026Z,50.17
2019-03-29T02:07:05.085Z,51.27
2019-03-29T02:09:34.884Z,54.17
2019-03-29T02:12:04.866Z,51.83
2019-03-29T02:14:34.752Z,50.70
2019-03-29T02:17:04.546Z,49.00
2019-03-29T02:19:34.445Z,43.13
2019-03-29T02:22:04.245Z,50.23
2019-03-29T02:24:34.146Z,44.43
2019-03-29T02:27:03.951Z,36.57
2019-03-29T02:29:33.772Z,47.60
2019-03-29T02:32:03.593Z,42.40
2019-03-29T02:34:33.474Z,46.93
2019-03-29T02:37:03.387Z,39.00
2019-03-29T02:39:33.188Z,41.57
2019-03-29T02:42:03.002Z,41.20
2019-03-29T02:44:34.819Z,39.30
2019-03-29T02:47:04.481Z,46.77
2019-03-29T02:49:34.322Z,37.37
2019-03-29T02:52:05.033Z,41.13
2019-03-29T02:54:38.454Z,34.77
2019-03-29T02:57:08.266Z,48.33
2019-03-29T02:59:38.056Z,43.17
2019-03-29T03:02:07.032Z,41.57
2019-03-29T03:04:36.838Z,43.27
2019-03-29T03:07:06.655Z,40.70
2019-03-29T03:09:36.466Z,46.13
2019-03-29T03:12:06.279Z,44.47
2019-03-29T03:14:36.090Z,47.40
2019-03-29T03:17:05.920Z,49.37
2019-03-29T03:19:35.737Z,56.50
2019-03-29T03:22:05.541Z,57.93
2019-03-29T03:24:35.378Z,63.40
2019-03-29T03:27:05.178Z,58.37
2019-03-29T03:29:34.998Z,50.60
2019-03-29T03:32:04.809Z,58.20
2019-03-29T03:34:34.804Z,51.10
2019-03-29T03:37:04.703Z,47.47
2019-03-29T03:39:34.603Z,58.83
2019-03-29T03:42:04.411Z,56.80
2019-03-29T03:44:34.385Z,50.13
2019-03-29T03:47:04.385Z,57.83
2019-03-29T03:49:34.315Z,55.90
2019-03-29T03:52:04.130Z,53.40
2019-03-29T03:54:34.013Z,52.43
2019-03-29T03:57:05.766Z,55.83
2019-03-29T03:59:36.587Z,51.87
2019-03-29T04:02:06.462Z,49.57
2019-03-29T04:04:37.888Z,45.70
2019-03-29T04:07:08.070Z,52.07
2019-03-29T04:09:49.419Z,56.00
2019-03-29T04:12:09.425Z,53.80
2019-03-29T04:14:39.213Z,48.80
2019-03-29T04:17:09.044Z,54.53
2019-03-29T04:19:38.984Z,51.77
2019-03-29T04:22:08.774Z,44.60
2019-03-29T04:24:38.584Z,49.23
2019-03-29T04:27:08.417Z,51.83
2019-03-29T04:29:38.222Z,48.70
2019-03-29T04:32:08.027Z,43.67
2019-03-29T04:34:37.857Z,45.23
2019-03-29T04:37:07.656Z,46.63
2019-03-29T04:39:37.448Z,37.23
2019-03-29T04:42:07.284Z,39.43
2019-03-29T04:44:37.089Z,42.00
2019-03-29T04:47:06.940Z,44.37
2019-03-29T04:49:36.857Z,37.73
2019-03-29T04:52:06.676Z,37.77
2019-03-29T04:54:36.569Z,40.73
2019-03-29T04:57:06.408Z,42.95
2019-03-29T04:59:36.207Z,45.10
2019-03-29T05:02:06.005Z,34.23
2019-03-29T05:04:35.881Z,41.93
2019-03-29T05:07:05.788Z,34.90
2019-03-29T05:09:35.584Z,35.93
2019-03-29T05:12:05.415Z,35.80
2019-03-29T05:14:35.385Z,46.03
2019-03-29T05:17:05.198Z,37.17
2019-03-29T05:19:35.017Z,42.20
2019-03-29T05:22:04.905Z,42.73
2019-03-29T05:24:34.708Z,39.20
2019-03-29T05:27:04.557Z,37.50
2019-03-29T05:29:34.466Z,39.83
2019-03-29T05:32:04.364Z,40.23
2019-03-29T05:34:34.192Z,29.87
2019-03-29T05:37:04.005Z,38.90
2019-03-29T05:39:33.795Z,28.03
2019-03-29T05:42:03.632Z,27.17
2019-03-29T05:44:33.432Z,35.33
2019-03-29T05:47:03.287Z,22.00
2019-03-29T05:49:33.189Z,32.23
2019-03-29T05:52:02.983Z,24.80
2019-03-29T05:54:32.812Z,24.63
2019-03-29T05:57:02.628Z,27.03
2019-03-29T05:59:32.432Z,26.00
2019-03-29T06:02:02.232Z,31.43
2019-03-29T06:04:32.068Z,22.50
2019-03-29T06:07:01.868Z,23.33
2019-03-29T06:09:34.761Z,22.80
2019-03-29T06:12:03.290Z,23.67
2019-03-29T06:14:33.133Z,30.70
2019-03-29T06:17:02.951Z,34.20
2019-03-29T06:19:32.785Z,21.37
2019-03-29T06:22:02.576Z,30.50
2019-03-29T06:24:32.505Z,23.83
2019-03-29T06:27:02.360Z,18.60
2019-03-29T06:29:32.225Z,22.00
2019-03-29T06:32:02.059Z,24.30
2019-03-29T06:34:32.035Z,22.47
2019-03-29T06:37:02.937Z,28.73
2019-03-29T06:39:32.853Z,17.27
2019-03-29T06:42:02.706Z,20.93
2019-03-29T06:44:32.521Z,16.20
2019-03-29T06:47:02.320Z,24.23
2019-03-29T06:49:32.140Z,18.73
2019-03-29T06:52:02.004Z,18.40
2019-03-29T06:54:31.845Z,20.90
2019-03-29T06:57:01.711Z,20.03
2019-03-29T06:59:31.512Z,19.87
2019-03-29T07:02:01.379Z,18.13
2019-03-29T07:04:31.394Z,16.80
2019-03-29T07:07:01.296Z,16.83
2019-03-29T07:09:33.953Z,22.10
2019-03-29T07:12:04.021Z,18.50
2019-03-29T07:14:33.841Z,20.13
2019-03-29T07:17:03.665Z,17.03
2019-03-29T07:19:33.517Z,14.53
2019-03-29T07:22:03.324Z,23.50
2019-03-29T07:24:33.190Z,16.20
2019-03-29T07:27:03.094Z,24.57
2019-03-29T07:29:32.926Z,19.00
2019-03-29T07:32:02.761Z,20.47
2019-03-29T07:34:32.610Z,16.03
2019-03-29T07:37:05.646Z,26.53
2019-03-29T07:39:34.038Z,14.37
2019-03-29T07:42:03.913Z,17.87
2019-03-29T07:44:33.862Z,16.77
2019-03-29T07:47:03.681Z,17.40
2019-03-29T07:49:33.531Z,16.60
2019-03-29T07:52:03.333Z,19.97
2019-03-29T07:54:33.154Z,18.07
2019-03-29T07:57:03.049Z,21.60
2019-03-29T07:59:32.881Z,14.70
2019-03-29T08:02:02.822Z,21.33
2019-03-29T08:04:32.731Z,16.77
2019-03-29T08:07:02.565Z,19.03
2019-03-29T08:09:32.457Z,17.27
2019-03-29T08:12:02.607Z,17.70
2019-03-29T08:14:32.497Z,17.27
2019-03-29T08:17:02.320Z,28.50
2019-03-29T08:19:32.164Z,19.90
2019-03-29T08:22:01.987Z,26.27
2019-03-29T08:24:31.885Z,20.03
2019-03-29T08:27:01.730Z,21.53
2019-03-29T08:29:31.623Z,17.30
2019-03-29T08:32:01.499Z,17.77
2019-03-29T08:34:31.343Z,23.80
2019-03-29T08:37:01.224Z,24.27
2019-03-29T08:39:31.086Z,14.60
2019-03-29T08:42:01.050Z,14.87
2019-03-29T08:44:30.987Z,19.97
2019-03-29T08:47:00.939Z,17.43
2019-03-29T08:49:30.999Z,16.40
2019-03-29T08:52:00.917Z,16.30
2019-03-29T08:54:30.805Z,16.50
2019-03-29T08:57:00.779Z,17.63
2019-03-29T08:59:30.592Z,26.07
2019-03-29T09:02:00.708Z,19.27
2019-03-29T09:04:30.639Z,20.10
2019-03-29T09:07:00.460Z,16.17
2019-03-29T09:09:30.866Z,25.67
2019-03-29T09:12:13.717Z,17.83
2019-03-29T09:14:32.310Z,19.33
2019-03-29T09:17:02.121Z,15.87
2019-03-29T09:19:31.958Z,26.00
2019-03-29T09:22:01.810Z,16.53
2019-03-29T09:24:31.626Z,23.00
2019-03-29T09:27:01.554Z,20.17
2019-03-29T09:29:31.365Z,18.10
2019-03-29T09:32:01.216Z,18.10
2019-03-29T09:34:31.101Z,26.63
2019-03-29T09:37:00.949Z,17.40
2019-03-29T09:39:30.772Z,17.00
2019-03-29T09:42:00.681Z,19.23
2019-03-29T09:44:30.613Z,28.37
2019-03-29T09:47:00.459Z,17.80
2019-03-29T09:49:30.266Z,22.13
2019-03-29T09:52:00.077Z,23.40
2019-03-29T09:54:29.933Z,19.83
2019-03-29T09:56:59.801Z,17.50
2019-03-29T09:59:31.015Z,20.73
2019-03-29T10:02:01.026Z,15.87
2019-03-29T10:04:31.106Z,22.87
2019-03-29T10:07:00.958Z,18.63
2019-03-29T10:09:30.782Z,17.27
2019-03-29T10:12:00.634Z,19.80
2019-03-29T10:14:33.263Z,18.30
2019-03-29T10:17:02.022Z,26.77
2019-03-29T10:19:31.861Z,16.90
2019-03-29T10:22:01.680Z,21.50
2019-03-29T10:24:31.832Z,14.13
2019-03-29T10:27:01.705Z,14.77
2019-03-29T10:29:31.517Z,18.20
2019-03-29T10:32:01.371Z,16.93
2019-03-29T10:34:31.250Z,13.73
2019-03-29T10:37:01.154Z,16.77
2019-03-29T10:39:30.998Z,20.63
2019-03-29T10:42:00.817Z,12.27
2019-03-29T10:44:30.717Z,14.33
2019-03-29T10:47:00.531Z,15.63
2019-03-29T10:49:30.367Z,14.10
2019-03-29T10:52:00.218Z,12.47
2019-03-29T10:54:30.122Z,12.07
2019-03-29T10:56:59.931Z,12.50
2019-03-29T10:59:29.812Z,14.03
2019-03-29T11:01:59.693Z,10.50
2019-03-29T11:04:31.939Z,10.13
2019-03-29T11:07:01.070Z,13.90
2019-03-29T11:09:30.905Z,11.07
2019-03-29T11:12:00.695Z,14.03
2019-03-29T11:14:30.597Z,13.00
2019-03-29T11:17:00.425Z,10.57
2019-03-29T11:19:30.375Z,7.03
2019-03-29T11:22:00.195Z,5.97
2019-03-29T11:24:30.011Z,7.37
2019-03-29T11:26:59.821Z,7.80
2019-03-29T11:29:29.663Z,10.57
2019-03-29T11:31:59.461Z,9.77
2019-03-29T11:34:29.264Z,11.83
2019-03-29T11:36:59.097Z,15.17
2019-03-29T11:39:28.909Z,10.00
2019-03-29T11:41:59.674Z,10.10
2019-03-29T11:44:30.400Z,11.50
2019-03-29T11:47:00.414Z,9.47
2019-03-29T11:49:30.297Z,10.00
2019-03-29T11:52:00.120Z,6.13
2019-03-29T11:54:29.964Z,9.57
2019-03-29T11:56:59.849Z,9.53
2019-03-29T11:59:29.668Z,10.63
2019-03-29T12:01:59.508Z,16.50
2019-03-29T12:04:29.309Z,8.83
2019-03-29T12:06:59.146Z,21.13
2019-03-29T12:09:28.997Z,11.60
2019-03-29T12:11:58.807Z,8.83
2019-03-29T12:14:29.051Z,11.30
2019-03-29T12:16:58.844Z,8.53
2019-03-29T12:19:28.651Z,6.63
2019-03-29T12:21:58.477Z,5.90
2019-03-29T12:24:28.276Z,5.70
2019-03-29T12:26:58.084Z,6.73
2019-03-29T12:29:27.910Z,8.03
2019-03-29T12:31:57.712Z,3.87
2019-03-29T12:34:27.831Z,6.47
2019-03-29T12:36:57.765Z,8.03
2019-03-29T12:39:27.552Z,9.17
2019-03-29T12:41:57.350Z,5.13
2019-03-29T12:44:27.175Z,6.23
2019-03-29T12:46:56.971Z,9.33
2019-03-29T12:49:26.798Z,7.20
2019-03-29T12:51:56.649Z,7.17
2019-03-29T12:54:26.446Z,5.67
2019-03-29T12:56:56.262Z,5.30
2019-03-29T12:59:26.101Z,6.50
2019-03-29T13:01:55.936Z,5.50
2019-03-29T13:04:25.733Z,8.23
2019-03-29T13:06:55.674Z,7.27
2019-03-29T13:09:25.564Z,7.10
2019-03-29T13:11:55.505Z,7.90
2019-03-29T13:14:25.332Z,5.57
2019-03-29T13:16:55.131Z,7.70
2019-03-29T13:19:24.928Z,7.70
2019-03-29T13:21:54.769Z,5.93
2019-03-29T13:24:24.581Z,12.00
2019-03-29T13:26:54.548Z,6.40
2019-03-29T13:29:24.461Z,4.67
2019-03-29T13:31:54.281Z,4.77
2019-03-29T13:34:24.110Z,6.07
2019-03-29T13:36:53.923Z,15.13
2019-03-29T13:39:23.742Z,7.47
2019-03-29T13:41:53.551Z,5.30
2019-03-29T13:44:25.423Z,12.37
2019-03-29T13:46:55.276Z,7.10
2019-03-29T13:49:25.149Z,6.20
2019-03-29T13:51:55.179Z,5.67
2019-03-29T13:54:25.267Z,6.63
2019-03-29T13:56:55.104Z,5.43
2019-03-29T13:59:25.083Z,6.60
2019-03-29T14:01:55.399Z,5.23
2019-03-29T14:04:25.799Z,7.93
2019-03-29T14:06:56.247Z,6.63
2019-03-29T14:09:29.250Z,7.23
2019-03-29T14:11:57.983Z,5.67
2019-03-29T14:14:38.130Z,4.80
2019-03-29T14:17:02.413Z,19.13
2019-03-29T14:19:32.555Z,6.63
2019-03-29T14:22:02.605Z,7.03
2019-03-29T14:24:32.708Z,5.30
2019-03-29T14:27:02.612Z,4.73
2019-03-29T14:29:32.504Z,4.27
2019-03-29T14:32:02.355Z,8.60
2019-03-29T14:34:32.146Z,7.53
2019-03-29T14:37:01.965Z,6.30
2019-03-29T14:39:31.795Z,21.33
2019-03-29T14:42:01.756Z,5.40
2019-03-29T14:44:31.611Z,5.93
2019-03-29T14:47:01.528Z,10.40
2019-03-29T14:49:31.330Z,17.00
2019-03-29T14:52:01.149Z,8.40
2019-03-29T14:54:30.951Z,5.40
2019-03-29T14:57:00.837Z,6.30
2019-03-29T14:59:30.677Z,7.23
2019-03-29T15:02:00.488Z,6.30
2019-03-29T15:04:30.335Z,5.17
2019-03-29T15:07:00.169Z,5.17
2019-03-29T15:09:30.069Z,4.40
2019-03-29T15:11:59.874Z,4.73
2019-03-29T15:14:29.720Z,4.93
2019-03-29T15:16:59.545Z,12.30
2019-03-29T15:19:29.384Z,8.20
2019-03-29T15:21:59.241Z,7.47
2019-03-29T15:24:29.052Z,5.50
2019-03-29T15:26:58.846Z,5.30
2019-03-29T15:29:28.677Z,4.53
2019-03-29T15:31:58.466Z,8.70
2019-03-29T15:34:28.270Z,4.23
2019-03-29T15:36:58.091Z,8.43
2019-03-29T15:39:27.900Z,5.83
2019-03-29T15:41:57.724Z,6.90
2019-03-29T15:44:27.962Z,7.63
2019-03-29T15:46:57.805Z,13.37
2019-03-29T15:49:27.599Z,6.77
2019-03-29T15:51:57.433Z,6.63
2019-03-29T15:54:27.244Z,8.23
2019-03-29T15:56:57.145Z,8.60
2019-03-29T15:59:26.985Z,5.40
2019-03-29T16:01:56.873Z,5.20
2019-03-29T16:04:26.734Z,4.93
2019-03-29T16:06:56.729Z,11.37
2019-03-29T16:09:26.868Z,6.90
2019-03-29T16:11:57.213Z,5.67
2019-03-29T16:14:27.081Z,8.50
2019-03-29T16:16:56.912Z,7.83
2019-03-29T16:19:26.785Z,5.30
2019-03-29T16:21:56.703Z,10.20
2019-03-29T16:24:26.628Z,4.27
2019-03-29T16:26:56.450Z,7.10
2019-03-29T16:29:26.327Z,3.53
2019-03-29T16:31:56.476Z,8.10
2019-03-29T16:34:26.299Z,3.20
2019-03-29T16:36:56.206Z,19.40
2019-03-29T16:39:26.004Z,7.10
2019-03-29T16:41:55.810Z,6.23
2019-03-29T16:44:25.756Z,4.97
2019-03-29T16:46:55.573Z,7.70
2019-03-29T16:49:25.366Z,5.23
2019-03-29T16:51:55.212Z,3.63
2019-03-29T16:54:25.218Z,6.53
2019-03-29T16:56:55.137Z,19.27
2019-03-29T16:59:25.002Z,4.20
2019-03-29T17:01:54.821Z,6.40
2019-03-29T17:04:24.645Z,4.83
2019-03-29T17:06:54.535Z,4.37
2019-03-29T17:09:24.355Z,7.10
2019-03-29T17:11:54.144Z,8.83
2019-03-29T17:14:23.970Z,7.77
2019-03-29T17:16:53.787Z,5.65
2019-03-29T17:19:23.592Z,4.77
2019-03-29T17:21:53.410Z,4.93
2019-03-29T17:24:23.209Z,4.20
2019-03-29T17:26:53.032Z,4.97
2019-03-29T17:29:22.932Z,5.30
2019-03-29T17:31:52.747Z,6.80
2019-03-29T17:34:22.553Z,8.77
2019-03-29T17:36:52.465Z,5.53
2019-03-29T17:39:22.400Z,13.93
2019-03-29T17:41:52.276Z,10.07
2019-03-29T17:44:22.161Z,5.73
2019-03-29T17:46:51.965Z,4.43
2019-03-29T17:49:21.764Z,4.20
2019-03-29T17:51:51.667Z,4.93
2019-03-29T17:54:22.733Z,3.77
2019-03-29T17:56:52.530Z,5.80
2019-03-29T17:59:22.349Z,5.30
2019-03-29T18:01:52.144Z,5.53
2019-03-29T18:04:21.948Z,6.80
2019-03-29T18:06:51.778Z,9.83
2019-03-29T18:09:21.584Z,6.60
2019-03-29T18:11:51.395Z,6.23
2019-03-29T18:14:21.228Z,6.70
2019-03-29T18:16:51.022Z,6.73
2019-03-29T18:19:20.896Z,15.47
2019-03-29T18:21:50.856Z,17.70
2019-03-29T18:24:20.830Z,12.00
2019-03-29T18:26:50.679Z,10.60
2019-03-29T18:29:20.664Z,7.93
2019-03-29T18:31:50.728Z,6.20
2019-03-29T18:34:20.558Z,7.90
2019-03-29T18:36:52.266Z,8.10
2019-03-29T18:39:22.793Z,5.83
2019-03-29T18:41:52.640Z,9.97
2019-03-29T18:44:22.535Z,6.50
2019-03-29T18:46:52.378Z,7.83
2019-03-29T18:49:22.212Z,6.93
2019-03-29T18:51:52.225Z,8.93
2019-03-29T18:54:22.055Z,6.67
2019-03-29T18:56:51.946Z,15.57
2019-03-29T18:59:21.824Z,10.50
2019-03-29T19:01:51.827Z,5.60
2019-03-29T19:04:21.739Z,11.30
2019-03-29T19:06:51.571Z,20.27
2019-03-29T19:09:21.601Z,8.10
2019-03-29T19:11:51.483Z,10.77
2019-03-29T19:14:21.404Z,15.00
2019-03-29T19:16:58.893Z,8.13
2019-03-29T19:19:22.849Z,10.70
2019-03-29T19:21:52.743Z,9.50
2019-03-29T19:24:22.532Z,9.07
2019-03-29T19:26:52.352Z,7.33
2019-03-29T19:29:22.165Z,14.10
2019-03-29T19:31:55.308Z,17.43
2019-03-29T19:34:23.538Z,13.90
2019-03-29T19:36:53.359Z,12.53
2019-03-29T19:39:23.147Z,10.00
2019-03-29T19:41:52.974Z,14.10
2019-03-29T19:44:22.810Z,11.57
2019-03-29T19:46:52.730Z,12.80
2019-03-29T19:49:22.525Z,9.53
2019-03-29T19:51:52.389Z,12.00
2019-03-29T19:54:22.266Z,8.47
2019-03-29T19:56:52.140Z,6.70
2019-03-29T19:59:21.998Z,30.33
2019-03-29T20:01:51.877Z,9.33
2019-03-29T20:04:21.682Z,22.13
2019-03-29T20:06:51.559Z,6.50
2019-03-29T20:09:21.461Z,7.90
2019-03-29T20:11:51.308Z,8.20
2019-03-29T20:14:21.133Z,10.50
2019-03-29T20:16:51.001Z,10.70
2019-03-29T20:19:20.890Z,19.80
2019-03-29T20:21:51.021Z,11.80
2019-03-29T20:24:20.940Z,7.57
2019-03-29T20:26:50.816Z,9.33
2019-03-29T20:29:20.691Z,15.43
2019-03-29T20:31:50.842Z,6.57
2019-03-29T20:34:20.705Z,10.23
2019-03-29T20:36:50.505Z,9.47
2019-03-29T20:39:23.357Z,9.00
2019-03-29T20:41:53.376Z,11.93
2019-03-29T20:44:23.241Z,19.43
2019-03-29T20:46:53.238Z,18.73
2019-03-29T20:49:23.075Z,12.57
2019-03-29T20:51:53.017Z,19.80
2019-03-29T20:54:22.824Z,10.10
2019-03-29T20:56:52.666Z,10.20
2019-03-29T20:59:22.659Z,23.80
2019-03-29T21:01:53.016Z,12.40
2019-03-29T21:04:22.943Z,14.20
2019-03-29T21:06:52.761Z,12.60
2019-03-29T21:09:22.632Z,11.50
2019-03-29T21:11:52.500Z,14.20
2019-03-29T21:14:22.300Z,19.30
2019-03-29T21:16:52.522Z,20.33
2019-03-29T21:19:22.393Z,9.60
2019-03-29T21:21:52.211Z,12.07
2019-03-29T21:24:22.016Z,14.93
2019-03-29T21:26:51.872Z,13.47
2019-03-29T21:29:21.682Z,29.33
2019-03-29T21:31:51.524Z,21.40
2019-03-29T21:34:21.326Z,14.87
2019-03-29T21:36:51.245Z,21.00
2019-03-29T21:39:21.058Z,13.00
2019-03-29T21:41:53.953Z,15.13
2019-03-29T21:44:23.820Z,14.90
2019-03-29T21:46:53.704Z,16.90
2019-03-29T21:49:23.542Z,13.73
2019-03-29T21:51:54.592Z,12.90
2019-03-29T21:54:25.616Z,9.17
2019-03-29T21:56:55.503Z,17.10
2019-03-29T21:59:29.784Z,12.60
2019-03-29T22:01:59.684Z,9.67
2019-03-29T22:04:31.921Z,11.80
2019-03-29T22:07:01.886Z,9.67
2019-03-29T22:09:37.104Z,8.77
2019-03-29T22:12:05.427Z,12.33
2019-03-29T22:14:38.107Z,10.57
2019-03-29T22:17:08.127Z,10.07
2019-03-29T22:19:39.441Z,16.17
2019-03-29T22:22:13.899Z,13.57
2019-03-29T22:24:43.058Z,8.60
2019-03-29T22:27:12.966Z,19.43
2019-03-29T22:29:43.377Z,16.50
2019-03-29T22:32:13.185Z,9.20
2019-03-29T22:34:43.001Z,16.83
2019-03-29T22:37:12.885Z,11.23
2019-03-29T22:39:42.705Z,13.13
2019-03-29T22:42:12.556Z,12.80
2019-03-29T22:44:42.358Z,12.30
2019-03-29T22:47:12.262Z,13.13
2019-03-29T22:49:42.094Z,10.37
2019-03-29T22:52:11.927Z,15.70
2019-03-29T22:54:41.912Z,11.10
2019-03-29T22:57:11.914Z,17.90
2019-03-29T22:59:41.737Z,10.97
2019-03-29T23:02:11.706Z,9.30
2019-03-29T23:04:41.544Z,11.37
2019-03-29T23:07:11.369Z,9.33
2019-03-29T23:09:41.278Z,8.40
2019-03-29T23:12:11.181Z,8.83
2019-03-29T23:14:41.033Z,10.50
2019-03-29T23:17:10.848Z,10.60
2019-03-29T23:19:40.676Z,15.23
2019-03-29T23:22:10.570Z,11.47
2019-03-29T23:24:40.383Z,8.10
2019-03-29T23:27:10.216Z,7.17
2019-03-29T23:29:40.051Z,12.33
2019-03-29T23:32:09.912Z,12.20
2019-03-29T23:34:39.742Z,9.83
2019-03-29T23:37:09.652Z,11.47
2019-03-29T23:39:39.814Z,9.20
2019-03-29T23:42:09.648Z,8.40
2019-03-29T23:44:39.458Z,11.47
2019-03-29T23:47:09.290Z,8.63
2019-03-29T23:49:39.251Z,9.90
2019-03-29T23:52:09.059Z,19.20
2019-03-29T23:54:38.872Z,11.47
2019-03-29T23:57:08.718Z,12.30
2019-03-29T23:59:38.567Z,19.17
